createdAt,value
2022-08-10T00:00:53.703Z,71.20
2022-08-10T00:05:57.109Z,71.24
2022-08-10T00:11:01.905Z,70.79
2022-08-10T00:16:07.566Z,71.03
2022-08-10T00:21:11.221Z,70.61
2022-08-10T00:26:16.031Z,71.41
2022-08-10T00:31:21.752Z,71.12
2022-08-10T00:36:25.100Z,70.79
2022-08-10T00:41:29.882Z,70.97
2022-08-10T00:46:34.047Z,70.71
2022-08-10T00:51:47.898Z,71.11
2022-08-10T00:57:17.638Z,70.54
2022-08-10T01:02:16.650Z,70.12
2022-08-10T01:07:32.983Z,70.39
2022-08-10T01:12:46.329Z,70.47
2022-08-10T01:17:55.263Z,70.35
2022-08-10T01:23:42.618Z,70.13
2022-08-10T01:29:14.386Z,70.73
2022-08-10T01:34:24.844Z,70.46
2022-08-10T01:39:34.464Z,70.28
2022-08-10T01:44:40.848Z,70.75
2022-08-10T01:49:47.410Z,70.05
2022-08-10T01:54:52.909Z,70.12
2022-08-10T02:00:02.701Z,70.12
2022-08-10T02:05:10.410Z,70.10
2022-08-10T02:10:16.662Z,69.91
2022-08-10T02:15:23.002Z,70.10
2022-08-10T02:20:31.400Z,70.19
2022-08-10T02:25:40.737Z,70.31
2022-08-10T02:30:47.607Z,70.11
2022-08-10T02:35:55.882Z,70.18
2022-08-10T02:42:18.793Z,70.07
2022-08-10T02:46:40.861Z,69.75
2022-08-10T02:52:06.206Z,69.88
2022-08-10T02:57:17.993Z,69.98
2022-08-10T03:02:32.046Z,69.60
2022-08-10T03:07:43.416Z,69.60
2022-08-10T03:12:52.341Z,69.37
2022-08-10T03:17:58.900Z,68.18
2022-08-10T03:23:06.018Z,67.54
2022-08-10T03:28:10.713Z,67.01
2022-08-10T03:33:22.325Z,66.33
2022-08-10T03:38:27.103Z,66.01
2022-08-10T03:43:31.440Z,65.18
2022-08-10T03:48:49.362Z,64.16
2022-08-10T03:54:03.041Z,61.10
2022-08-10T03:59:12.689Z,49.06
2022-08-10T04:04:22.472Z,50.03
2022-08-10T04:09:55.588Z,53.65
2022-08-10T04:14:54.857Z,49.33
2022-08-10T04:20:00.402Z,36.78
2022-08-10T04:25:07.272Z,34.90
2022-08-10T04:30:11.832Z,41.26
2022-08-10T04:35:18.352Z,45.04
2022-08-10T04:40:29.125Z,45.24
2022-08-10T04:45:49.406Z,44.90
2022-08-10T04:50:54.939Z,45.86
2022-08-10T04:55:59.807Z,46.38
2022-08-10T05:01:03.613Z,43.88
2022-08-10T05:06:07.858Z,39.09
2022-08-10T05:11:12.638Z,39.76
2022-08-10T05:16:31.992Z,39.92
2022-08-10T05:22:04.662Z,39.26
2022-08-10T05:27:10.010Z,39.46
2022-08-10T05:32:13.907Z,40.77
2022-08-10T05:38:09.558Z,38.16
2022-08-10T05:42:43.099Z,33.24
2022-08-10T05:48:54.645Z,30.04
2022-08-10T05:54:03.022Z,23.92
2022-08-10T05:58:34.872Z,20.32
2022-08-10T06:03:45.005Z,18.72
2022-08-10T06:08:50.739Z,17.03
2022-08-10T06:14:16.534Z,16.04
2022-08-10T06:19:22.784Z,17.40
2022-08-10T06:24:30.728Z,18.18
2022-08-10T06:29:38.712Z,18.63
2022-08-10T06:34:47.677Z,16.44
2022-08-10T06:39:51.170Z,15.50
2022-08-10T06:45:00.827Z,15.20
2022-08-10T06:50:11.810Z,15.69
2022-08-10T06:55:16.776Z,15.12
2022-08-10T07:00:33.931Z,14.91
2022-08-10T07:05:44.467Z,14.10
2022-08-10T07:10:52.604Z,14.36
2022-08-10T07:16:00.566Z,14.18
2022-08-10T07:21:05.388Z,14.31
2022-08-10T07:26:11.663Z,14.43
2022-08-10T07:31:33.090Z,14.17
2022-08-10T07:36:45.975Z,13.37
2022-08-10T07:41:55.036Z,13.73
2022-08-10T07:47:04.045Z,13.86
2022-08-10T07:52:08.932Z,14.88
2022-08-10T07:57:24.051Z,17.46
2022-08-10T08:02:45.560Z,17.64
2022-08-10T08:07:51.354Z,16.35
2022-08-10T08:12:57.746Z,16.43
2022-08-10T08:18:05.641Z,17.18
2022-08-10T08:24:14.787Z,17.67
2022-08-10T08:28:36.043Z,18.35
2022-08-10T08:33:42.870Z,19.55
2022-08-10T08:38:47.719Z,21.17
2022-08-10T08:44:05.189Z,22.46
2022-08-10T08:50:09.527Z,24.09
2022-08-10T08:56:04.230Z,26.04
2022-08-10T09:00:58.880Z,25.31
2022-08-10T09:06:16.737Z,25.72
2022-08-10T09:11:32.006Z,27.15
2022-08-10T09:16:44.444Z,27.77
2022-08-10T09:22:13.065Z,28.63
2022-08-10T09:27:26.455Z,29.44
2022-08-10T09:36:16.364Z,29.51
2022-08-10T09:38:24.962Z,30.07
2022-08-10T09:43:37.949Z,30.58
2022-08-10T09:48:49.412Z,30.64
2022-08-10T09:54:01.510Z,29.94
2022-08-10T09:59:45.891Z,30.13
2022-08-10T10:04:48.160Z,30.31
2022-08-10T10:09:59.387Z,30.51
2022-08-10T10:15:24.681Z,30.74
2022-08-10T10:20:38.818Z,30.85
2022-08-10T10:25:53.117Z,31.13
2022-08-10T10:31:16.355Z,31.26
2022-08-10T10:36:22.334Z,31.61
2022-08-10T10:41:57.436Z,31.22
2022-08-10T10:47:15.555Z,31.08
2022-08-10T10:52:44.262Z,30.71
2022-08-10T10:58:01.159Z,29.83
2022-08-10T11:03:22.530Z,30.50
2022-08-10T11:08:29.983Z,31.51
2022-08-10T11:14:26.971Z,30.61
2022-08-10T11:19:16.966Z,30.69
2022-08-10T11:24:47.342Z,30.52
2022-08-10T11:30:05.783Z,30.68
2022-08-10T11:35:23.262Z,30.55
2022-08-10T11:40:33.060Z,30.82
2022-08-10T11:45:52.181Z,30.99
2022-08-10T11:51:01.667Z,32.04
2022-08-10T11:56:10.943Z,31.73
2022-08-10T12:01:21.658Z,31.51
2022-08-10T12:06:54.038Z,31.76
2022-08-10T12:11:50.663Z,31.53
2022-08-10T12:17:02.644Z,30.81
2022-08-10T12:22:08.655Z,31.23
2022-08-10T12:27:17.594Z,30.79
2022-08-10T12:32:32.437Z,30.26
2022-08-10T12:37:50.865Z,30.02
2022-08-10T12:43:12.933Z,30.51
2022-08-10T12:48:32.992Z,30.60
2022-08-10T12:53:54.360Z,30.74
2022-08-10T12:59:01.490Z,31.32
2022-08-10T13:04:20.438Z,31.91
2022-08-10T13:09:27.630Z,32.34
2022-08-10T13:14:32.611Z,32.88
2022-08-10T13:19:54.735Z,32.76
2022-08-10T13:25:01.681Z,33.13
2022-08-10T13:30:10.282Z,33.95
2022-08-10T13:35:18.968Z,33.82
2022-08-10T13:40:22.799Z,33.58
2022-08-10T13:45:27.022Z,34.20
2022-08-10T13:50:35.475Z,34.78
2022-08-10T13:55:53.530Z,34.51
2022-08-10T14:01:01.209Z,33.69
2022-08-10T14:06:08.644Z,34.30
2022-08-10T14:11:15.728Z,34.39
2022-08-10T14:16:20.686Z,34.57
2022-08-10T14:21:25.939Z,35.39
2022-08-10T14:26:31.752Z,35.25
2022-08-10T14:31:38.416Z,35.99
2022-08-10T14:36:47.161Z,36.92
2022-08-10T14:42:01.490Z,36.38
2022-08-10T14:47:51.517Z,35.96
2022-08-10T14:52:44.205Z,36.01
2022-08-10T14:58:19.534Z,36.70
2022-08-10T15:03:59.610Z,36.76
2022-08-10T15:08:46.895Z,37.68
2022-08-10T15:14:12.496Z,38.45
2022-08-10T15:20:01.184Z,38.58
2022-08-10T15:25:04.705Z,38.62
2022-08-10T15:30:11.012Z,38.88
2022-08-10T15:35:32.447Z,38.94
2022-08-10T15:40:50.683Z,39.18
2022-08-10T15:46:02.241Z,38.95
2022-08-10T15:51:18.122Z,38.31
2022-08-10T15:56:30.382Z,38.44
2022-08-10T16:02:04.274Z,38.75
2022-08-10T16:07:07.988Z,39.26
2022-08-10T16:12:16.220Z,39.46
2022-08-10T16:17:22.191Z,39.83
2022-08-10T16:22:35.984Z,40.24
2022-08-10T16:27:44.555Z,40.75
2022-08-10T16:32:50.880Z,41.08
2022-08-10T16:37:59.864Z,41.18
2022-08-10T16:43:09.163Z,41.31
2022-08-10T16:48:15.815Z,41.93
2022-08-10T16:53:47.614Z,42.15
2022-08-10T16:58:58.051Z,42.61
2022-08-10T17:04:09.865Z,42.99
2022-08-10T17:09:19.639Z,43.10
2022-08-10T17:14:29.753Z,43.67
2022-08-10T17:19:38.647Z,44.57
2022-08-10T17:24:47.047Z,44.62
2022-08-10T17:30:03.456Z,45.29
2022-08-10T17:35:11.056Z,46.18
2022-08-10T17:40:19.222Z,47.04
2022-08-10T17:45:46.241Z,47.33
2022-08-10T17:50:52.666Z,47.95
2022-08-10T17:55:58.467Z,49.56
2022-08-10T18:01:38.116Z,50.17
2022-08-10T18:06:30.256Z,50.94
2022-08-10T18:11:35.017Z,51.19
2022-08-10T18:16:43.965Z,51.72
2022-08-10T18:21:49.397Z,52.33
2022-08-10T18:26:56.657Z,52.81
2022-08-10T18:32:04.050Z,52.01
2022-08-10T18:37:10.321Z,52.59
2022-08-10T18:42:19.081Z,53.28
2022-08-10T18:47:37.600Z,51.94
2022-08-10T18:52:45.028Z,51.43
2022-08-10T18:58:05.707Z,51.01
2022-08-10T19:03:53.636Z,50.87
2022-08-10T19:09:46.039Z,50.54
2022-08-10T19:14:38.890Z,50.37
2022-08-10T19:19:51.990Z,50.48
2022-08-10T19:25:02.696Z,50.52
2022-08-10T19:30:13.334Z,49.90
2022-08-10T19:35:29.687Z,49.83
2022-08-10T19:40:44.679Z,50.02
2022-08-10T19:46:02.922Z,49.63
2022-08-10T19:51:15.283Z,49.44
2022-08-10T19:56:34.013Z,49.59
2022-08-10T20:01:55.886Z,49.28
2022-08-10T20:07:11.498Z,49.83
2022-08-10T20:12:20.219Z,49.91
2022-08-10T20:17:52.655Z,49.99
2022-08-10T20:23:05.365Z,50.30
2022-08-10T20:28:19.721Z,50.20
2022-08-10T20:33:29.438Z,50.45
2022-08-10T20:38:58.800Z,51.37
2022-08-10T20:44:12.932Z,51.45
2022-08-10T20:49:24.798Z,51.54
2022-08-10T20:54:41.735Z,52.45
2022-08-10T21:00:04.540Z,53.13
2022-08-10T21:05:20.590Z,54.79
2022-08-10T21:10:39.142Z,54.72
2022-08-10T21:15:56.527Z,55.48
2022-08-10T21:21:16.472Z,54.95
2022-08-10T21:26:37.092Z,56.50
2022-08-10T21:32:06.946Z,57.42
2022-08-10T21:37:22.758Z,56.92
2022-08-10T21:42:58.927Z,56.89
2022-08-10T21:48:30.552Z,57.05
2022-08-10T21:53:57.106Z,57.51
2022-08-10T21:59:25.314Z,58.29
2022-08-10T22:04:46.187Z,58.17
2022-08-10T22:10:08.902Z,58.36
2022-08-10T22:16:04.052Z,58.60
2022-08-10T22:21:27.133Z,58.68
2022-08-10T22:27:06.265Z,58.75
2022-08-10T22:32:42.214Z,59.59
2022-08-10T22:38:14.396Z,59.40
2022-08-10T22:43:42.435Z,60.11
2022-08-10T22:49:00.835Z,59.92
2022-08-10T22:54:31.238Z,60.17
2022-08-10T22:59:35.201Z,60.71
2022-08-10T23:04:45.409Z,60.58
2022-08-10T23:09:58.794Z,61.31
2022-08-10T23:15:21.774Z,61.22
2022-08-10T23:20:28.538Z,61.38
2022-08-10T23:25:34.596Z,61.22
2022-08-10T23:30:47.959Z,61.64
2022-08-10T23:36:29.823Z,61.12
2022-08-10T23:41:28.315Z,60.92
2022-08-10T23:46:37.701Z,61.46
2022-08-10T23:51:55.985Z,61.63
2022-08-10T23:57:02.045Z,61.41
